Time;durP1;ratioP1;P1;durP2;ratioP2;P2;SDS_P1;SDS_P2;PMS_P1;PMS_P2;Temp;Humidity;BMP_temperature;BMP_pressure;BME280_temperature;BME280_humidity;BME280_pressure;Samples;Min_cycle;Max_cycle;Signal;HPM_P1;HPM_P2
2022/11/30 00:00:21;;;;;;;66.72;41.88;;;154.10;2252.80;;;;;;4972460;28;20038;-58
2022/11/30 00:02:52;;;;;;;37.33;24.83;;;154.10;2252.80;;;;;;4972661;28;20081;-58
2022/11/30 00:05:19;;;;;;;41.88;25.23;;;153.90;2252.80;;;;;;4972531;28;20050;-58
2022/11/30 00:07:45;;;;;;;55.80;30.80;;;154.00;2252.80;;;;;;4972794;28;20035;-57
2022/11/30 00:10:12;;;;;;;82.38;51.85;;;154.10;2252.80;;;;;;4972547;28;20150;-57
2022/11/30 00:12:41;;;;;;;107.03;62.97;;;154.20;2252.80;;;;;;4972675;28;20082;-57
2022/11/30 00:15:12;;;;;;;79.63;50.45;;;154.20;2252.80;;;;;;4971735;28;20035;-59
2022/11/30 00:17:39;;;;;;;84.35;53.00;;;154.30;2252.80;;;;;;4972601;28;20055;-58
2022/11/30 00:20:06;;;;;;;78.38;46.72;;;154.30;2252.80;;;;;;4972252;28;20037;-57
2022/11/30 00:22:32;;;;;;;59.63;36.13;;;154.30;2252.80;;;;;;4972339;28;20172;-59
2022/11/30 00:24:59;;;;;;;58.70;35.75;;;154.20;2252.80;;;;;;4972418;28;20500;-60
2022/11/30 00:27:28;;;;;;;57.42;32.90;;;153.90;2252.80;;;;;;4972261;28;20027;-57
2022/11/30 00:29:54;;;;;;;67.53;39.03;;;153.90;2252.80;;;;;;4972278;28;20481;-59
2022/11/30 00:32:20;;;;;;;60.60;39.25;;;154.10;2252.80;;;;;;4971936;28;20031;-57
2022/11/30 00:34:46;;;;;;;61.40;38.22;;;154.10;2252.80;;;;;;4972292;28;20109;-56
2022/11/30 00:37:11;;;;;;;50.38;30.40;;;154.10;2252.80;;;;;;4971866;28;20039;-56
2022/11/30 00:39:37;;;;;;;49.03;28.70;;;154.00;2252.80;;;;;;4972019;28;20043;-59
2022/11/30 00:42:03;;;;;;;63.30;39.55;;;154.10;2252.80;;;;;;4971795;28;20023;-56
2022/11/30 00:44:29;;;;;;;67.63;38.60;;;154.30;2252.80;;;;;;4971834;28;20057;-56
2022/11/30 00:46:54;;;;;;;67.60;37.17;;;154.20;2252.80;;;;;;4971656;28;20458;-56
2022/11/30 00:49:20;;;;;;;68.50;42.88;;;154.30;2252.80;;;;;;4971588;28;20027;-57
2022/11/30 00:51:46;;;;;;;59.42;36.70;;;154.20;2252.80;;;;;;4972128;28;20052;-55
2022/11/30 00:54:11;;;;;;;65.88;36.78;;;154.20;2252.80;;;;;;4980279;28;20035;-56
2022/11/30 00:56:37;;;;;;;62.50;36.13;;;154.30;2252.80;;;;;;4980912;28;20053;-59
2022/11/30 00:59:03;;;;;;;43.35;27.58;;;154.40;2252.80;;;;;;4971418;28;20159;-58
2022/11/30 01:01:30;;;;;;;50.38;31.15;;;154.10;2252.80;;;;;;4989272;28;20109;-58
2022/11/30 01:03:56;;;;;;;48.00;28.80;;;154.10;2252.80;;;;;;4991056;28;20035;-58
2022/11/30 01:06:21;;;;;;;54.13;33.75;;;154.20;2252.80;;;;;;4990756;28;20030;-60
2022/11/30 01:08:47;;;;;;;47.80;28.75;;;154.20;2252.80;;;;;;4991015;28;20520;-60
2022/11/30 01:11:25;;;;;;;52.85;31.33;;;154.20;2252.80;;;;;;4990755;28;20067;-60
2022/11/30 01:13:51;;;;;;;49.92;31.00;;;154.20;2252.80;;;;;;4990462;28;20114;-60
2022/11/30 01:16:24;;;;;;;49.97;32.80;;;154.20;2252.80;;;;;;4990805;28;20030;-55
2022/11/30 01:18:50;;;;;;;42.25;27.17;;;154.20;2252.80;;;;;;4990540;28;20046;-57
2022/11/30 01:21:18;;;;;;;48.28;31.00;;;154.10;2252.80;;;;;;4990863;28;20477;-57
2022/11/30 01:23:45;;;;;;;76.63;40.72;;;154.20;2252.80;;;;;;4990801;28;20034;-58
2022/11/30 01:26:11;;;;;;;44.10;30.73;;;154.40;2252.80;;;;;;4990483;28;20034;-57
2022/11/30 01:28:39;;;;;;;52.00;32.72;;;154.30;2252.80;;;;;;4990781;28;20072;-59
2022/11/30 01:31:08;;;;;;;52.58;32.72;;;154.20;2252.80;;;;;;4990801;28;20033;-57
2022/11/30 01:33:34;;;;;;;55.40;31.95;;;154.30;2252.80;;;;;;4990574;28;20073;-57
2022/11/30 01:36:15;;;;;;;66.15;37.03;;;154.30;2252.80;;;;;;4990500;28;20066;-57
2022/11/30 01:38:44;;;;;;;54.63;33.33;;;154.30;2252.80;;;;;;4990615;28;20066;-56
2022/11/30 01:41:12;;;;;;;53.28;32.65;;;154.20;2252.80;;;;;;4990593;28;20072;-57
2022/11/30 01:43:44;;;;;;;47.85;31.83;;;154.20;2252.80;;;;;;4990780;28;20053;-57
2022/11/30 01:46:37;;;;;;;48.08;29.15;;;154.30;2252.80;;;;;;4990556;28;20395;-57
2022/11/30 01:49:16;;;;;;;55.30;30.97;;;154.30;2252.80;;;;;;4990675;28;20042;-57
2022/11/30 01:51:59;;;;;;;58.88;37.92;;;154.30;2252.80;;;;;;4990537;28;20295;-58
2022/11/30 01:54:34;;;;;;;50.35;32.05;;;154.10;2252.80;;;;;;4990604;28;20117;-57
2022/11/30 01:57:08;;;;;;;53.80;31.67;;;154.30;2252.80;;;;;;4990399;28;20472;-57
2022/11/30 01:59:34;;;;;;;58.67;35.00;;;154.30;2252.80;;;;;;4990429;28;20089;-56
2022/11/30 02:02:00;;;;;;;59.83;33.97;;;154.30;2252.80;;;;;;4990376;28;20014;-57
2022/11/30 02:04:28;;;;;;;48.83;30.23;;;154.20;2252.80;;;;;;4990472;28;20026;-59
2022/11/30 02:06:56;;;;;;;48.45;32.22;;;154.20;2252.80;;;;;;4990243;28;20058;-57
2022/11/30 02:09:23;;;;;;;50.53;31.67;;;154.20;2252.80;;;;;;4990266;28;20034;-56
2022/11/30 02:11:49;;;;;;;47.85;29.70;;;154.30;2252.80;;;;;;4990273;28;20107;-57
2022/11/30 02:14:27;;;;;;;51.13;31.25;;;154.40;2252.80;;;;;;4990415;28;20451;-59
2022/11/30 02:17:15;;;;;;;46.35;30.25;;;154.30;2252.80;;;;;;4990196;28;20023;-59
2022/11/30 02:19:47;;;;;;;54.25;34.05;;;154.30;2252.80;;;;;;4979515;28;20174;-56
2022/11/30 02:22:25;;;;;;;51.33;33.13;;;154.30;2252.80;;;;;;4976667;28;20027;-57
2022/11/30 02:25:28;;;;;;;55.17;34.35;;;154.20;2252.80;;;;;;4970669;28;20466;-56
2022/11/30 02:28:17;;;;;;;58.97;33.25;;;154.20;2252.80;;;;;;4927906;28;20027;-57
2022/11/30 02:30:48;;;;;;;49.00;31.70;;;154.20;2252.80;;;;;;4970497;28;20035;-56
2022/11/30 02:33:26;;;;;;;55.17;36.50;;;154.20;2252.80;;;;;;4970477;28;20027;-60
2022/11/30 02:35:54;;;;;;;59.30;36.50;;;154.10;2252.80;;;;;;4970480;28;20031;-55
2022/11/30 02:38:22;;;;;;;57.25;36.42;;;154.20;2252.80;;;;;;4970710;28;20485;-56
2022/11/30 02:40:48;;;;;;;59.13;36.03;;;154.30;2252.80;;;;;;4974329;28;20409;-56
2022/11/30 02:43:16;;;;;;;62.15;37.55;;;154.10;2252.80;;;;;;4974048;28;20062;-56
2022/11/30 02:45:52;;;;;;;56.30;33.53;;;154.10;2252.80;;;;;;4974079;28;20027;-56
2022/11/30 02:48:41;;;;;;;52.95;36.25;;;154.10;2252.80;;;;;;4974065;28;20035;-56
2022/11/30 02:51:10;;;;;;;51.92;30.17;;;153.90;2252.80;;;;;;4974053;28;20022;-56
2022/11/30 02:53:36;;;;;;;49.45;31.85;;;153.90;2252.80;;;;;;4974144;28;20389;-57
2022/11/30 02:56:03;;;;;;;52.97;31.73;;;153.80;2252.80;;;;;;4973673;28;20059;-56
2022/11/30 02:58:29;;;;;;;50.63;33.60;;;153.70;2252.80;;;;;;4973925;28;20030;-56
2022/11/30 03:00:55;;;;;;;53.25;35.70;;;153.60;2252.80;;;;;;4974092;28;20030;-56
2022/11/30 03:03:21;;;;;;;53.08;34.05;;;128.90;2252.80;;;;;;4973594;28;20050;-56
2022/11/30 03:05:47;;;;;;;58.92;39.80;;;128.90;2252.80;;;;;;4973728;28;20113;-59
2022/11/30 03:08:13;;;;;;;58.97;35.10;;;153.60;2252.80;;;;;;4973875;28;20113;-56
2022/11/30 03:10:38;;;;;;;60.53;37.80;;;153.80;2252.80;;;;;;4973994;28;20023;-57
2022/11/30 03:13:04;;;;;;;55.00;36.60;;;153.80;2252.80;;;;;;4973566;28;20026;-57
2022/11/30 03:15:30;;;;;;;54.85;33.47;;;153.80;2252.80;;;;;;4973505;28;20098;-57
2022/11/30 03:17:55;;;;;;;57.30;36.38;;;153.90;2252.80;;;;;;4973624;28;20027;-56
2022/11/30 03:20:21;;;;;;;55.85;36.20;;;154.00;2252.80;;;;;;4973262;28;20062;-57
2022/11/30 03:22:46;;;;;;;54.17;34.53;;;154.00;2252.80;;;;;;4973510;28;20031;-58
2022/11/30 03:25:12;;;;;;;49.50;31.27;;;154.00;2252.80;;;;;;4973195;28;20030;-57
2022/11/30 03:27:38;;;;;;;43.95;30.33;;;154.10;2252.80;;;;;;4973686;28;20057;-56
2022/11/30 03:30:04;;;;;;;65.70;42.22;;;154.20;2252.80;;;;;;4973098;28;20097;-57
2022/11/30 03:32:30;;;;;;;45.40;27.40;;;154.10;2252.80;;;;;;4972248;28;20039;-57
2022/11/30 03:34:56;;;;;;;45.08;30.10;;;154.10;2252.80;;;;;;4973231;28;20030;-56
2022/11/30 03:37:21;;;;;;;45.85;27.60;;;154.00;2252.80;;;;;;4972894;28;20042;-57
2022/11/30 03:39:47;;;;;;;46.25;29.40;;;154.10;2252.80;;;;;;4973370;28;20045;-56
2022/11/30 03:42:13;;;;;;;40.35;28.60;;;154.20;2252.80;;;;;;4972930;28;20105;-59
2022/11/30 03:44:39;;;;;;;45.97;30.88;;;154.20;2252.80;;;;;;4973199;28;20030;-56
2022/11/30 03:47:05;;;;;;;42.58;27.65;;;154.20;2252.80;;;;;;4972881;28;20027;-56
2022/11/30 03:49:30;;;;;;;46.40;27.70;;;154.20;2252.80;;;;;;4972762;28;20027;-57
2022/11/30 03:51:56;;;;;;;42.65;29.20;;;154.30;2252.80;;;;;;4972946;28;20505;-56
2022/11/30 03:54:22;;;;;;;43.70;30.17;;;154.10;2252.80;;;;;;4972777;28;20093;-57
2022/11/30 03:56:47;;;;;;;41.03;27.60;;;154.10;2252.80;;;;;;4972778;28;20094;-59
2022/11/30 03:59:13;;;;;;;43.85;28.17;;;154.10;2252.80;;;;;;4972577;28;20501;-60
2022/11/30 04:01:39;;;;;;;40.42;26.33;;;154.20;2252.80;;;;;;4972586;28;20026;-56
2022/11/30 04:04:06;;;;;;;35.03;26.95;;;154.20;2252.80;;;;;;4972804;28;20062;-56
2022/11/30 04:06:33;;;;;;;36.60;25.00;;;154.20;2252.80;;;;;;4972462;28;20041;-56
2022/11/30 04:08:58;;;;;;;36.38;23.50;;;154.30;2252.80;;;;;;4972552;28;20097;-56
2022/11/30 04:11:24;;;;;;;35.53;23.80;;;154.30;2252.80;;;;;;4972509;28;20477;-56
2022/11/30 04:13:50;;;;;;;36.80;23.17;;;154.30;2252.80;;;;;;4972381;28;20381;-57
2022/11/30 04:16:15;;;;;;;34.60;22.75;;;154.30;2252.80;;;;;;4972466;28;20034;-57
2022/11/30 04:18:41;;;;;;;37.03;24.65;;;154.20;2252.80;;;;;;4972464;28;20039;-57
2022/11/30 04:21:07;;;;;;;32.65;22.35;;;154.10;2252.80;;;;;;4954763;28;20085;-56
2022/11/30 04:23:35;;;;;;;43.28;29.90;;;154.30;2252.80;;;;;;4972031;28;20058;-59
2022/11/30 04:26:03;;;;;;;48.22;30.17;;;154.30;2252.80;;;;;;4972041;28;20462;-57
2022/11/30 04:28:29;;;;;;;47.17;28.35;;;154.30;2252.80;;;;;;4972167;28;20027;-59
2022/11/30 04:30:55;;;;;;;43.97;28.85;;;154.40;2252.80;;;;;;4972248;28;20038;-57
2022/11/30 04:33:21;;;;;;;50.08;32.15;;;154.40;2252.80;;;;;;4972060;28;20476;-57
2022/11/30 04:35:50;;;;;;;49.05;29.45;;;154.20;2252.80;;;;;;4972132;28;20042;-58
2022/11/30 04:38:16;;;;;;;39.08;27.63;;;154.00;2252.80;;;;;;4972215;28;20035;-57
2022/11/30 04:40:42;;;;;;;34.78;24.98;;;154.00;2252.80;;;;;;4972296;28;20097;-58
2022/11/30 04:43:09;;;;;;;39.15;24.77;;;154.10;2252.80;;;;;;4972536;28;20027;-58
2022/11/30 04:45:35;;;;;;;37.63;24.58;;;154.10;2252.80;;;;;;4972208;28;20090;-57
2022/11/30 04:48:02;;;;;;;33.40;21.73;;;154.00;2252.80;;;;;;4971898;28;20027;-58
2022/11/30 04:50:27;;;;;;;31.25;21.90;;;153.90;2252.80;;;;;;4971917;28;20039;-58
2022/11/30 04:52:53;;;;;;;38.63;23.40;;;153.70;2252.80;;;;;;4971595;28;20034;-58
2022/11/30 04:55:19;;;;;;;34.47;22.15;;;153.70;2252.80;;;;;;4971626;28;20377;-57
2022/11/30 04:57:45;;;;;;;35.53;22.40;;;153.60;2252.80;;;;;;4971656;28;20465;-57
2022/11/30 05:00:13;;;;;;;37.55;24.73;;;128.90;2252.80;;;;;;4971509;28;20039;-57
2022/11/30 05:02:39;;;;;;;40.05;23.90;;;153.60;2252.80;;;;;;4971208;28;20474;-57
2022/11/30 05:05:05;;;;;;;35.78;21.92;;;153.60;2252.80;;;;;;4971682;28;20038;-56
2022/11/30 05:07:31;;;;;;;34.35;22.83;;;153.60;2252.80;;;;;;4971285;28;20030;-59
2022/11/30 05:09:56;;;;;;;37.40;25.15;;;153.70;2252.80;;;;;;4971549;28;20058;-57
2022/11/30 05:12:22;;;;;;;40.53;27.08;;;153.70;2252.80;;;;;;4971400;28;20034;-57
2022/11/30 05:14:48;;;;;;;37.10;24.73;;;153.80;2252.80;;;;;;4971433;28;20466;-57
2022/11/30 05:17:13;;;;;;;50.10;27.77;;;153.80;2252.80;;;;;;4971226;28;20027;-58
2022/11/30 05:19:39;;;;;;;42.35;27.20;;;153.80;2252.80;;;;;;4971445;28;20047;-57
2022/11/30 05:22:05;;;;;;;42.30;29.58;;;153.80;2252.80;;;;;;4971496;28;20520;-57
2022/11/30 05:24:30;;;;;;;51.78;33.33;;;154.00;2252.80;;;;;;4971255;28;20393;-58
2022/11/30 05:26:56;;;;;;;56.67;32.67;;;154.00;2252.80;;;;;;4971403;28;20376;-56
2022/11/30 05:29:22;;;;;;;43.95;28.52;;;154.10;2252.80;;;;;;4977941;28;20552;-58
2022/11/30 05:31:48;;;;;;;43.63;28.25;;;154.20;2252.80;;;;;;4990702;28;20038;-56
2022/11/30 05:34:13;;;;;;;46.35;30.88;;;154.10;2252.80;;;;;;4990484;28;20042;-57
2022/11/30 05:36:39;;;;;;;48.88;31.70;;;154.20;2252.80;;;;;;4990519;28;20050;-57
2022/11/30 05:39:05;;;;;;;49.40;31.23;;;154.20;2252.80;;;;;;4990745;28;20089;-56
2022/11/30 05:41:30;;;;;;;58.72;36.88;;;154.30;2252.80;;;;;;4990572;28;20022;-56
2022/11/30 05:43:56;;;;;;;57.30;37.05;;;154.30;2252.80;;;;;;4990784;28;20030;-56
2022/11/30 05:46:22;;;;;;;77.43;47.50;;;154.20;2252.80;;;;;;4990432;28;20153;-56
2022/11/30 05:48:48;;;;;;;69.50;44.05;;;154.20;2252.80;;;;;;4990822;28;20042;-56
2022/11/30 05:51:16;;;;;;;72.88;45.53;;;154.10;2252.80;;;;;;4990483;28;20473;-57
2022/11/30 05:53:42;;;;;;;73.15;43.78;;;154.20;2252.80;;;;;;4990413;28;20028;-56
2022/11/30 05:56:11;;;;;;;66.07;44.90;;;154.30;2252.80;;;;;;4990752;28;20053;-56
2022/11/30 05:58:37;;;;;;;60.60;38.33;;;154.30;2252.80;;;;;;4990620;28;20465;-56
2022/11/30 06:01:04;;;;;;;52.78;35.60;;;154.10;2252.80;;;;;;4990287;28;20057;-58
2022/11/30 06:03:31;;;;;;;58.95;36.38;;;154.10;2252.80;;;;;;4990477;28;20075;-59
2022/11/30 06:05:57;;;;;;;57.88;35.65;;;154.10;2252.80;;;;;;4990370;28;20604;-59
2022/11/30 06:08:24;;;;;;;49.25;33.65;;;154.20;2252.80;;;;;;4990259;28;20117;-59
2022/11/30 06:10:49;;;;;;;50.92;32.22;;;154.30;2252.80;;;;;;4990408;28;20029;-59
2022/11/30 06:13:15;;;;;;;47.60;32.05;;;154.30;2252.80;;;;;;4990747;28;20404;-58
2022/11/30 06:15:41;;;;;;;53.80;33.00;;;154.20;2252.80;;;;;;4994334;28;20377;-59
2022/11/30 06:18:10;;;;;;;55.55;35.85;;;153.90;2252.80;;;;;;4994092;28;20473;-58
2022/11/30 06:20:35;;;;;;;64.35;37.53;;;153.90;2252.80;;;;;;4994144;28;20042;-58
2022/11/30 06:23:01;;;;;;;66.03;43.90;;;153.70;2252.80;;;;;;4993897;28;20033;-59
2022/11/30 06:25:27;;;;;;;51.50;33.63;;;153.80;2252.80;;;;;;4993973;28;20026;-58
2022/11/30 06:27:53;;;;;;;47.53;31.10;;;153.80;2252.80;;;;;;4993888;28;20473;-58
2022/11/30 06:30:19;;;;;;;39.17;28.63;;;153.90;2252.80;;;;;;4994099;28;20219;-58
2022/11/30 06:32:46;;;;;;;42.55;27.52;;;154.00;2252.80;;;;;;4993986;28;20080;-59
2022/11/30 06:35:12;;;;;;;48.92;30.73;;;154.10;2252.80;;;;;;4993788;28;20023;-58
2022/11/30 06:37:37;;;;;;;65.65;46.33;;;154.00;2252.80;;;;;;4994048;28;20038;-57
2022/11/30 06:40:04;;;;;;;51.25;32.45;;;154.00;2252.80;;;;;;4993495;28;20061;-57
2022/11/30 06:42:30;;;;;;;63.75;39.00;;;154.10;2252.80;;;;;;4993527;28;20093;-59
2022/11/30 06:44:56;;;;;;;49.72;30.95;;;154.10;2252.80;;;;;;4993736;28;20026;-58
2022/11/30 06:47:22;;;;;;;49.03;30.73;;;154.20;2252.80;;;;;;4993501;28;20027;-58
2022/11/30 06:49:48;;;;;;;143.75;106.25;;;154.10;2252.80;;;;;;4993506;28;20030;-58
2022/11/30 06:52:14;;;;;;;56.78;37.40;;;154.10;2252.80;;;;;;4993404;28;20030;-61
2022/11/30 06:54:39;;;;;;;43.30;30.17;;;154.30;2252.80;;;;;;4993190;28;20495;-59
2022/11/30 06:57:05;;;;;;;42.95;26.05;;;154.30;2252.80;;;;;;4993389;28;20136;-59
2022/11/30 06:59:31;;;;;;;41.92;25.55;;;154.00;2252.80;;;;;;4993077;28;20042;-58
2022/11/30 07:01:56;;;;;;;39.75;27.85;;;153.80;2252.80;;;;;;4993361;28;20081;-61
2022/11/30 07:04:22;;;;;;;41.10;29.90;;;153.90;2252.80;;;;;;4993220;28;20034;-58
2022/11/30 07:06:48;;;;;;;42.70;27.33;;;153.90;2252.80;;;;;;4993228;28;20138;-59
2022/11/30 07:09:14;;;;;;;42.85;27.20;;;153.90;2252.80;;;;;;4993074;28;20030;-59
2022/11/30 07:11:39;;;;;;;43.05;27.70;;;153.90;2252.80;;;;;;4993118;28;20101;-59
2022/11/30 07:14:05;;;;;;;38.90;28.58;;;154.00;2252.80;;;;;;4993090;28;20447;-61
2022/11/30 07:16:31;;;;;;;46.28;28.27;;;153.90;2252.80;;;;;;4992943;28;20030;-59
2022/11/30 07:18:57;;;;;;;50.35;28.90;;;153.80;2252.80;;;;;;4992976;28;20039;-58
2022/11/30 07:21:23;;;;;;;57.88;31.63;;;154.00;2252.80;;;;;;4992886;28;20029;-58
2022/11/30 07:26:33;;;;;;;52.83;36.10;;;153.90;2252.80;;;;;;4993015;28;20081;-58
2022/11/30 07:28:58;;;;;;;51.60;37.95;;;154.00;2252.80;;;;;;4992762;28;20026;-58
2022/11/30 07:31:25;;;;;;;54.67;36.20;;;154.10;2252.80;;;;;;4992917;28;20076;-58
2022/11/30 07:33:52;;;;;;;53.80;36.10;;;154.10;2252.80;;;;;;4992567;28;20453;-63
2022/11/30 07:36:20;;;;;;;57.53;38.85;;;154.20;2252.80;;;;;;4992617;28;20059;-58
2022/11/30 07:38:46;;;;;;;59.83;41.30;;;154.30;2252.80;;;;;;4992581;28;20041;-58
2022/11/30 07:41:12;;;;;;;58.25;41.00;;;154.30;2252.80;;;;;;4992558;28;20384;-63
2022/11/30 07:43:38;;;;;;;55.58;37.97;;;179.20;2252.80;;;;;;4992762;28;20093;-63
2022/11/30 07:46:05;;;;;;;55.08;35.80;;;179.50;2252.80;;;;;;4992470;28;20354;-58
2022/11/30 07:48:32;;;;;;;53.20;37.42;;;179.60;2252.80;;;;;;4992164;28;20026;-59
2022/11/30 07:51:27;;;;;;;48.83;33.63;;;179.60;2252.80;;;;;;4992464;28;20037;-64
2022/11/30 07:53:56;;;;;;;48.35;32.67;;;179.60;2252.80;;;;;;4913273;29;20495;-59
2022/11/30 07:56:22;;;;;;;50.35;32.47;;;179.50;2252.80;;;;;;4912895;29;20063;-59
2022/11/30 07:58:50;;;;;;;41.80;27.17;;;179.50;2252.80;;;;;;4913247;29;20492;-57
2022/11/30 08:01:18;;;;;;;41.10;29.80;;;179.50;2252.80;;;;;;4913280;29;20032;-59
2022/11/30 08:03:44;;;;;;;45.35;29.38;;;179.30;2252.80;;;;;;4913014;29;20044;-58
2022/11/30 08:06:13;;;;;;;40.00;26.95;;;179.30;2252.80;;;;;;4913121;29;20487;-58
2022/11/30 08:08:41;;;;;;;41.83;28.95;;;179.40;2252.80;;;;;;4913292;29;20038;-58
2022/11/30 08:11:10;;;;;;;42.00;28.50;;;179.30;2252.80;;;;;;4913363;29;20119;-58
2022/11/30 08:13:36;;;;;;;54.47;30.23;;;179.60;2252.80;;;;;;4909749;29;20088;-57
2022/11/30 08:16:06;;;;;;;42.85;28.13;;;179.60;2252.80;;;;;;4893893;29;20506;-57
2022/11/30 08:18:32;;;;;;;41.55;28.08;;;179.60;2252.80;;;;;;4894009;29;20200;-58
2022/11/30 08:21:03;;;;;;;45.60;30.95;;;179.60;2252.80;;;;;;4894212;29;20035;-59
2022/11/30 08:23:35;;;;;;;44.25;30.85;;;179.80;2252.80;;;;;;4893973;29;20294;-58
2022/11/30 08:26:03;;;;;;;43.38;32.05;;;179.70;2252.80;;;;;;4893809;29;20024;-58
2022/11/30 08:28:29;;;;;;;51.67;32.00;;;179.80;2252.80;;;;;;4894003;29;20032;-58
2022/11/30 08:31:00;;;;;;;48.05;30.80;;;179.90;2252.80;;;;;;4939743;29;20031;-58
2022/11/30 08:33:26;;;;;;;54.40;33.80;;;180.00;2252.80;;;;;;4952858;29;20090;-59
2022/11/30 08:35:51;;;;;;;57.83;38.40;;;180.10;2252.80;;;;;;4952054;28;20046;-58
2022/11/30 08:38:17;;;;;;;81.82;56.58;;;180.10;2252.80;;;;;;4952527;29;20031;-58
2022/11/30 08:40:43;;;;;;;72.13;48.78;;;204.90;2252.80;;;;;;4952662;29;20126;-59
2022/11/30 08:43:08;;;;;;;66.88;44.88;;;204.80;2252.80;;;;;;4953005;29;20032;-56
2022/11/30 08:45:34;;;;;;;67.13;43.40;;;204.90;2252.80;;;;;;4952832;29;20035;-58
2022/11/30 08:48:00;;;;;;;65.88;42.92;;;205.00;2252.80;;;;;;4952381;29;20055;-58
2022/11/30 08:50:26;;;;;;;64.60;45.55;;;204.80;2252.80;;;;;;4952758;29;20031;-59
2022/11/30 08:52:55;;;;;;;87.68;52.83;;;180.10;2252.80;;;;;;4952425;29;20540;-58
2022/11/30 08:55:20;;;;;;;83.97;58.83;;;204.80;2252.80;;;;;;4952199;29;20426;-59
2022/11/30 08:57:46;;;;;;;75.68;53.83;;;204.80;2252.80;;;;;;4952669;29;20027;-58
2022/11/30 09:00:12;;;;;;;83.45;56.65;;;205.00;2252.80;;;;;;4952546;29;20130;-58
2022/11/30 09:02:38;;;;;;;80.10;56.58;;;205.10;2252.80;;;;;;4952549;29;20561;-59
2022/11/30 09:05:04;;;;;;;88.53;57.47;;;205.10;2252.80;;;;;;4952252;28;20122;-58
2022/11/30 09:07:30;;;;;;;82.18;52.65;;;205.10;2252.80;;;;;;4952172;29;20027;-58
2022/11/30 09:09:56;;;;;;;74.63;49.75;;;205.10;2252.80;;;;;;4989413;28;20038;-58
2022/11/30 09:12:22;;;;;;;77.35;52.72;;;205.10;2252.80;;;;;;4990887;28;20046;-59
2022/11/30 09:14:47;;;;;;;85.32;57.80;;;205.20;2252.80;;;;;;4988786;28;20076;-57
2022/11/30 09:17:13;;;;;;;80.57;58.67;;;205.40;2252.80;;;;;;4981408;28;20019;-58
2022/11/30 09:19:39;;;;;;;90.68;61.42;;;205.30;2252.80;;;;;;4990145;28;20043;-57
2022/11/30 09:22:04;;;;;;;93.05;63.67;;;205.50;2252.80;;;;;;4987626;28;20027;-58
2022/11/30 09:24:30;;;;;;;84.57;59.25;;;205.50;2252.80;;;;;;4973393;28;20042;-58
2022/11/30 09:26:56;;;;;;;94.45;68.00;;;205.40;2252.80;;;;;;4990893;28;20108;-58
2022/11/30 09:29:22;;;;;;;101.97;72.85;;;205.60;2252.80;;;;;;4990750;28;20037;-59
2022/11/30 09:31:48;;;;;;;96.85;72.85;;;205.50;2252.80;;;;;;4991077;28;20369;-57
2022/11/30 09:34:14;;;;;;;88.20;64.57;;;230.40;2252.80;;;;;;4990480;28;20023;-59
2022/11/30 09:36:39;;;;;;;108.32;73.85;;;205.40;2252.80;;;;;;4990575;28;20035;-60
2022/11/30 09:39:07;;;;;;;83.45;58.70;;;205.40;2252.80;;;;;;4990688;28;20093;-58
2022/11/30 09:41:33;;;;;;;81.30;54.50;;;205.70;2252.80;;;;;;4990777;28;20030;-57
2022/11/30 09:44:39;;;;;;;93.95;57.47;;;205.50;2252.80;;;;;;4991009;28;20100;-58
2022/11/30 09:47:13;;;;;;;75.53;54.17;;;205.10;2252.80;;;;;;4990975;28;20385;-57
2022/11/30 09:49:44;;;;;;;77.55;51.45;;;204.90;2252.80;;;;;;4994540;28;20050;-59
2022/11/30 09:52:43;;;;;;;81.35;52.38;;;204.90;2252.80;;;;;;4994767;28;20033;-58
2022/11/30 09:55:13;;;;;;;69.78;48.13;;;205.10;2252.80;;;;;;4990925;28;20488;-58
2022/11/30 09:58:05;;;;;;;79.25;55.58;;;205.00;2252.80;;;;;;4994644;28;20034;-59
2022/11/30 10:00:33;;;;;;;68.80;43.05;;;205.10;2252.80;;;;;;4994252;28;20069;-57
2022/11/30 10:03:03;;;;;;;68.10;48.30;;;205.40;2252.80;;;;;;4994783;28;20491;-58
2022/11/30 10:05:46;;;;;;;78.90;49.50;;;205.70;2252.80;;;;;;4994413;28;20027;-57
2022/11/30 10:08:35;;;;;;;85.43;53.08;;;205.40;2252.80;;;;;;4994329;28;20069;-58
2022/11/30 10:11:22;;;;;;;74.57;46.88;;;205.60;2252.80;;;;;;4994294;28;20045;-59
2022/11/30 10:14:15;;;;;;;79.63;50.38;;;230.70;2252.80;;;;;;4994377;28;20086;-58
2022/11/30 10:16:57;;;;;;;55.63;39.50;;;230.70;2252.80;;;;;;4994145;28;20030;-58
2022/11/30 10:19:28;;;;;;;64.80;45.50;;;230.50;2252.80;;;;;;4994054;28;20042;-58
2022/11/30 10:22:00;;;;;;;62.97;41.22;;;230.40;2252.80;;;;;;4993855;28;20465;-58
2022/11/30 10:25:03;;;;;;;70.82;42.63;;;205.70;2252.80;;;;;;4994188;28;20103;-58
2022/11/30 10:27:47;;;;;;;65.85;39.42;;;230.70;2252.80;;;;;;4994185;28;20027;-57
2022/11/30 10:30:25;;;;;;;67.15;41.42;;;230.60;2252.80;;;;;;4993736;28;20023;-59
2022/11/30 10:32:57;;;;;;;54.78;35.00;;;230.60;2252.80;;;;;;4993667;28;20416;-58
2022/11/30 10:35:34;;;;;;;70.53;45.83;;;230.80;2252.80;;;;;;4993498;28;20022;-58
2022/11/30 10:38:23;;;;;;;81.88;49.03;;;230.80;2252.80;;;;;;4993853;28;20038;-59
2022/11/30 10:40:49;;;;;;;62.80;37.33;;;230.70;2252.80;;;;;;4914978;29;20075;-58
2022/11/30 10:43:21;;;;;;;71.75;43.00;;;230.60;2252.80;;;;;;4914955;29;20067;-58
2022/11/30 10:45:49;;;;;;;64.95;39.88;;;230.50;2252.80;;;;;;4914746;29;20080;-58
2022/11/30 10:48:35;;;;;;;55.47;33.58;;;230.40;2252.80;;;;;;4914565;29;20028;-58
2022/11/30 10:51:03;;;;;;;63.53;38.30;;;205.70;2252.80;;;;;;4914459;29;20024;-59
2022/11/30 10:53:30;;;;;;;49.50;30.70;;;230.50;2252.80;;;;;;4914630;29;20032;-58
2022/11/30 10:56:05;;;;;;;71.57;39.55;;;205.60;2252.80;;;;;;4914506;29;20056;-58
2022/11/30 10:58:44;;;;;;;53.47;31.58;;;230.40;2252.80;;;;;;4914162;29;20399;-58
2022/11/30 11:01:28;;;;;;;38.08;25.05;;;230.40;2252.80;;;;;;4914013;29;20036;-59
2022/11/30 11:04:11;;;;;;;50.00;32.08;;;230.60;2252.80;;;;;;4914361;29;20223;-57
2022/11/30 11:06:53;;;;;;;49.80;31.35;;;230.80;2252.80;;;;;;4914228;29;20040;-57
2022/11/30 11:09:46;;;;;;;67.38;44.30;;;230.60;2252.80;;;;;;4914354;29;20584;-57
2022/11/30 11:12:16;;;;;;;69.23;43.53;;;230.40;2252.80;;;;;;4914234;29;20054;-57
2022/11/30 11:14:43;;;;;;;35.70;24.40;;;230.60;2252.80;;;;;;4914111;29;20032;-57
2022/11/30 11:17:17;;;;;;;30.88;22.40;;;230.70;2252.80;;;;;;4928467;28;20133;-57
2022/11/30 11:19:45;;;;;;;47.45;26.55;;;205.60;2252.80;;;;;;4992818;28;20034;-57
2022/11/30 11:22:23;;;;;;;41.13;27.20;;;230.60;2252.80;;;;;;4993003;28;20377;-58
2022/11/30 11:24:52;;;;;;;51.15;31.52;;;230.40;2252.80;;;;;;4993000;28;20022;-56
2022/11/30 11:27:32;;;;;;;62.42;40.00;;;230.60;2252.80;;;;;;4993019;28;20022;-58
2022/11/30 11:30:07;;;;;;;76.32;49.30;;;230.70;2252.80;;;;;;4992870;28;20022;-57
2022/11/30 11:32:34;;;;;;;55.92;31.23;;;230.80;2252.80;;;;;;4992609;28;20404;-56
2022/11/30 11:34:59;;;;;;;67.82;39.83;;;230.70;2252.80;;;;;;4992790;28;20088;-57
2022/11/30 11:37:30;;;;;;;55.63;31.05;;;230.90;2252.80;;;;;;4992555;28;20385;-57
2022/11/30 11:39:59;;;;;;;57.97;36.15;;;230.80;2252.80;;;;;;4992585;28;20046;-56
2022/11/30 11:42:28;;;;;;;47.63;31.38;;;230.80;2252.80;;;;;;4992596;28;20469;-57
2022/11/30 11:44:57;;;;;;;66.68;42.92;;;231.00;2252.80;;;;;;4992374;28;20045;-57
2022/11/30 11:47:44;;;;;;;69.07;38.33;;;231.30;2252.80;;;;;;4992429;28;20109;-57
2022/11/30 11:50:28;;;;;;;34.60;24.05;;;256.00;2252.80;;;;;;4992508;28;20473;-59
2022/11/30 11:53:23;;;;;;;41.17;29.38;;;256.20;2252.80;;;;;;4992295;28;20026;-57
2022/11/30 11:56:21;;;;;;;47.72;30.00;;;256.20;2252.80;;;;;;4992316;28;20413;-57
2022/11/30 11:58:56;;;;;;;44.50;26.27;;;256.20;2252.80;;;;;;4913365;29;20599;-58
2022/11/30 12:01:43;;;;;;;49.03;32.45;;;256.30;2252.80;;;;;;4913133;29;20130;-57
2022/11/30 12:04:25;;;;;;;27.60;16.23;;;256.30;2252.80;;;;;;4913507;29;20119;-56
2022/11/30 12:06:53;;;;;;;26.40;16.70;;;256.40;2252.80;;;;;;4913077;29;20032;-57
2022/11/30 12:09:29;;;;;;;39.30;27.80;;;256.70;2252.80;;;;;;4913320;29;20040;-57
2022/11/30 12:11:54;;;;;;;25.27;17.65;;;256.50;2252.80;;;;;;4912100;29;20051;-57